createdAt,value
2023-04-04T00:02:10.764Z,99868.00
2023-04-04T00:04:58.802Z,99858.38
2023-04-04T00:07:49.079Z,99857.56
2023-04-04T00:10:36.142Z,99865.28
2023-04-04T00:13:23.370Z,99863.41
2023-04-04T00:16:10.470Z,99857.75
2023-04-04T00:18:57.594Z,99849.81
2023-04-04T00:21:47.928Z,99864.91
2023-04-04T00:24:35.702Z,99847.19
2023-04-04T00:27:22.895Z,99854.28
2023-04-04T00:30:10.653Z,99860.22
2023-04-04T00:32:58.406Z,99855.44
2023-04-04T00:35:45.594Z,99857.63
2023-04-04T00:38:32.732Z,99850.84
2023-04-04T00:41:20.015Z,99851.09
2023-04-04T00:44:07.125Z,99843.44
2023-04-04T00:46:54.314Z,99850.69
2023-04-04T00:49:41.432Z,99849.22
2023-04-04T00:52:28.638Z,99855.16
2023-04-04T00:55:16.675Z,99848.06
2023-04-04T00:58:03.837Z,99848.44
2023-04-04T01:00:51.128Z,99849.78
2023-04-04T01:03:39.825Z,99838.78
2023-04-04T01:06:28.107Z,99843.00
2023-04-04T01:09:15.843Z,99837.84
2023-04-04T01:12:03.245Z,99837.78
2023-04-04T01:14:50.484Z,99836.78
2023-04-04T01:17:37.849Z,99840.19
2023-04-04T01:20:31.486Z,99827.72
2023-04-04T01:23:19.724Z,99846.81
2023-04-04T01:26:08.131Z,99833.34
2023-04-04T01:28:56.774Z,99852.69
2023-04-04T01:31:49.952Z,99848.22
2023-04-04T01:34:50.617Z,99837.88
2023-04-04T01:37:49.881Z,99832.25
2023-04-04T01:40:38.878Z,99838.78
2023-04-04T01:43:26.304Z,99831.78
2023-04-04T01:46:13.683Z,99834.66
2023-04-04T01:49:00.862Z,99838.09
2023-04-04T01:51:49.771Z,99831.16
2023-04-04T01:54:37.315Z,99843.69
2023-04-04T01:57:24.409Z,99835.06
2023-04-04T02:00:12.379Z,99822.84
2023-04-04T02:03:00.482Z,99827.22
2023-04-04T02:05:47.862Z,99832.25
2023-04-04T02:08:35.130Z,99812.84
2023-04-04T02:11:23.285Z,99815.41
2023-04-04T02:14:10.351Z,99813.25
2023-04-04T02:16:57.510Z,99812.56
2023-04-04T02:19:44.776Z,99821.38
2023-04-04T02:22:31.862Z,99816.44
2023-04-04T02:25:18.996Z,99806.56
2023-04-04T02:28:06.246Z,99821.44
2023-04-04T02:30:53.335Z,99812.56
2023-04-04T02:33:40.407Z,99818.78
2023-04-04T02:36:27.823Z,99818.56
2023-04-04T02:39:15.116Z,99812.09
2023-04-04T02:42:02.228Z,99810.06
2023-04-04T02:44:49.266Z,99810.47
2023-04-04T02:47:36.294Z,99806.97
2023-04-04T02:50:23.480Z,99812.88
2023-04-04T02:53:10.556Z,99818.72
2023-04-04T02:55:57.688Z,99809.97
2023-04-04T02:58:44.857Z,99810.75
2023-04-04T03:01:32.548Z,99812.34
2023-04-04T03:04:19.761Z,99815.44
2023-04-04T03:07:06.855Z,99806.88
2023-04-04T03:09:53.891Z,99808.72
2023-04-04T03:12:41.303Z,99813.28
2023-04-04T03:15:28.452Z,99803.22
2023-04-04T03:18:15.571Z,99811.69
2023-04-04T03:21:02.902Z,99811.53
2023-04-04T03:23:49.995Z,99803.38
2023-04-04T03:26:37.611Z,99812.69
2023-04-04T03:29:24.682Z,99805.59
2023-04-04T03:32:12.012Z,99801.00
2023-04-04T03:34:59.163Z,99802.69
2023-04-04T03:37:46.204Z,99797.38
2023-04-04T03:40:33.994Z,99807.72
2023-04-04T03:43:21.712Z,99806.44
2023-04-04T03:46:08.915Z,99806.28
2023-04-04T03:48:56.659Z,99789.81
2023-04-04T03:51:43.747Z,99806.94
2023-04-04T03:54:31.169Z,99803.31
2023-04-04T03:57:18.399Z,99805.94
2023-04-04T04:00:06.121Z,99807.06
2023-04-04T04:02:53.625Z,99811.13
2023-04-04T04:05:41.366Z,99800.63
2023-04-04T04:08:28.507Z,99807.78
2023-04-04T04:11:15.855Z,99800.34
2023-04-04T04:14:03.892Z,99799.28
2023-04-04T04:16:50.964Z,99799.81
2023-04-04T04:19:38.056Z,99803.06
2023-04-04T04:22:25.105Z,99803.97
2023-04-04T04:25:12.179Z,99798.84
2023-04-04T04:27:59.310Z,99810.31
2023-04-04T04:30:46.629Z,99820.34
2023-04-04T04:33:33.934Z,99808.22
2023-04-04T04:36:21.061Z,99814.53
2023-04-04T04:39:08.283Z,99819.03
2023-04-04T04:41:55.314Z,99807.94
2023-04-04T04:44:42.386Z,99817.72
2023-04-04T04:47:32.023Z,99812.22
2023-04-04T04:50:19.215Z,99806.88
2023-04-04T04:53:06.270Z,99809.31
2023-04-04T04:55:53.564Z,99804.56
2023-04-04T04:58:40.814Z,99809.59
2023-04-04T05:01:28.103Z,99811.72
2023-04-04T05:04:17.732Z,99811.03
2023-04-04T05:07:04.950Z,99820.66
2023-04-04T05:09:52.304Z,99814.59
2023-04-04T05:12:44.898Z,99817.84
2023-04-04T05:15:32.448Z,99835.75
2023-04-04T05:18:19.551Z,99829.47
2023-04-04T05:21:06.688Z,99836.91
2023-04-04T05:23:53.778Z,99821.34
2023-04-04T05:26:40.860Z,99811.50
2023-04-04T05:29:29.315Z,99825.63
2023-04-04T05:32:16.383Z,99821.78
2023-04-04T05:35:03.834Z,99829.88
2023-04-04T05:37:50.963Z,99827.00
2023-04-04T05:40:38.241Z,99830.16
2023-04-04T05:43:25.630Z,99838.47
2023-04-04T05:46:12.765Z,99834.31
2023-04-04T05:48:59.864Z,99843.41
2023-04-04T05:51:47.381Z,99829.75
2023-04-04T05:54:34.381Z,99825.25
2023-04-04T05:57:22.423Z,99840.41
2023-04-04T06:00:11.154Z,99838.88
2023-04-04T06:02:58.978Z,99831.81
2023-04-04T06:05:51.807Z,99849.31
2023-04-04T06:08:52.506Z,99844.88
2023-04-04T06:11:41.059Z,99854.75
2023-04-04T06:14:28.146Z,99846.97
2023-04-04T06:17:15.660Z,99843.78
2023-04-04T06:20:04.633Z,99857.00
2023-04-04T06:22:51.715Z,99853.66
2023-04-04T06:25:38.910Z,99836.00
2023-04-04T06:28:26.600Z,99853.13
2023-04-04T06:31:13.729Z,99829.19
2023-04-04T06:34:01.682Z,99837.50
2023-04-04T06:36:48.720Z,99839.66
2023-04-04T06:39:36.010Z,99851.13
2023-04-04T06:42:23.125Z,99838.09
2023-04-04T06:45:10.536Z,99838.88
2023-04-04T06:47:57.680Z,99843.09
2023-04-04T06:50:44.782Z,99829.28
2023-04-04T06:53:32.408Z,99835.50
2023-04-04T06:56:19.476Z,99844.00
2023-04-04T06:59:06.632Z,99845.78
2023-04-04T07:01:53.766Z,99847.00
2023-04-04T07:04:42.046Z,99836.81
2023-04-04T07:07:30.153Z,99841.53
2023-04-04T07:10:17.301Z,99846.16
2023-04-04T07:13:04.474Z,99835.22
2023-04-04T07:15:51.954Z,99842.09
2023-04-04T07:18:38.979Z,99845.38
2023-04-04T07:21:26.101Z,99847.44
2023-04-04T07:24:13.231Z,99838.78
2023-04-04T07:27:00.272Z,99845.69
2023-04-04T07:29:48.476Z,99831.91
2023-04-04T07:32:36.248Z,99845.41
2023-04-04T07:35:23.316Z,99831.81
2023-04-04T07:38:10.505Z,99808.81
2023-04-04T07:40:57.580Z,99833.16
2023-04-04T07:43:44.601Z,99838.13
2023-04-04T07:46:31.729Z,99837.28
2023-04-04T07:49:18.840Z,99823.44
2023-04-04T07:52:06.571Z,99825.41
2023-04-04T07:54:54.222Z,99811.47
2023-04-04T07:57:41.614Z,99824.03
2023-04-04T08:00:28.758Z,99826.97
2023-04-04T08:03:17.793Z,99824.66
2023-04-04T08:06:04.931Z,99811.31
2023-04-04T08:08:52.574Z,99825.63
2023-04-04T08:11:39.624Z,99817.94
2023-04-04T08:14:27.162Z,99826.97
2023-04-04T08:17:18.966Z,99834.94
2023-04-04T08:20:06.585Z,99820.19
2023-04-04T08:22:53.792Z,99823.56
2023-04-04T08:25:40.811Z,99824.88
2023-04-04T08:28:27.936Z,99828.31
2023-04-04T08:31:15.072Z,99824.69
2023-04-04T08:34:07.869Z,99828.81
2023-04-04T08:36:54.870Z,99824.53
2023-04-04T08:39:41.956Z,99821.78
2023-04-04T08:42:32.587Z,99828.47
2023-04-04T08:45:21.568Z,99836.00
2023-04-04T08:48:11.685Z,99804.28
2023-04-04T08:51:01.149Z,99824.44
2023-04-04T08:53:48.390Z,99819.69
2023-04-04T08:56:36.084Z,99805.38
2023-04-04T08:59:23.256Z,99826.28
2023-04-04T09:02:10.817Z,99824.03
2023-04-04T09:05:06.103Z,99825.16
2023-04-04T09:07:55.074Z,99821.47
2023-04-04T09:10:44.279Z,99811.44
2023-04-04T09:13:31.533Z,99795.53
2023-04-04T09:16:18.667Z,99802.94
2023-04-04T09:19:05.815Z,99800.50
2023-04-04T09:21:52.846Z,99797.41
2023-04-04T09:24:41.672Z,99809.59
2023-04-04T09:27:28.769Z,99806.84
2023-04-04T09:30:16.017Z,99812.44
2023-04-04T09:33:05.835Z,99815.06
2023-04-04T09:35:59.167Z,99807.72
2023-04-04T09:38:48.833Z,99808.31
2023-04-04T09:41:39.771Z,99802.91
2023-04-04T09:44:33.340Z,99785.97
2023-04-04T09:47:30.909Z,99795.63
2023-04-04T09:50:24.005Z,99800.84
2023-04-04T09:53:17.209Z,99789.97
2023-04-04T09:56:04.884Z,99789.56
2023-04-04T09:59:03.098Z,99787.00
2023-04-04T10:01:55.211Z,99793.16
2023-04-04T10:04:44.588Z,99776.91
2023-04-04T10:07:33.779Z,99788.31
2023-04-04T10:10:21.232Z,99767.06
2023-04-04T10:13:11.636Z,99773.88
2023-04-04T10:16:00.830Z,99775.28
2023-04-04T10:18:48.492Z,99772.44
2023-04-04T10:21:36.098Z,99753.75
2023-04-04T10:24:23.308Z,99765.22
2023-04-04T10:27:10.427Z,99765.97
2023-04-04T10:29:57.688Z,99705.81
2023-04-04T10:33:01.539Z,99754.03
2023-04-04T10:35:54.213Z,99756.69
2023-04-04T10:38:44.999Z,99747.25
2023-04-04T10:41:33.099Z,99748.28
2023-04-04T10:44:30.196Z,99744.13
2023-04-04T10:47:26.640Z,99722.72
2023-04-04T10:50:15.458Z,99737.28
2023-04-04T10:53:06.773Z,99739.41
2023-04-04T10:55:54.274Z,99729.34
2023-04-04T10:58:41.844Z,99736.22
2023-04-04T11:01:54.902Z,99747.25
2023-04-04T11:04:48.052Z,99734.88
2023-04-04T11:07:37.060Z,99745.81
2023-04-04T11:10:26.947Z,99739.38
2023-04-04T11:13:24.918Z,99729.72
2023-04-04T11:16:15.818Z,99722.34
2023-04-04T11:19:03.267Z,99708.56
2023-04-04T11:21:51.159Z,99693.38
2023-04-04T11:24:44.751Z,99708.19
2023-04-04T11:27:31.917Z,99708.81
2023-04-04T11:30:19.445Z,99695.63
2023-04-04T11:33:08.193Z,99698.78
2023-04-04T11:36:07.706Z,99693.56
2023-04-04T11:38:58.546Z,99670.75
2023-04-04T11:42:04.164Z,99681.91
2023-04-04T11:44:51.177Z,99674.75
2023-04-04T11:47:40.072Z,99663.44
2023-04-04T11:50:35.004Z,99671.59
2023-04-04T11:53:22.376Z,99656.19
2023-04-04T11:56:15.754Z,99676.06
2023-04-04T11:59:11.574Z,99658.28
2023-04-04T12:02:00.582Z,99663.78
2023-04-04T12:04:48.419Z,99658.06
2023-04-04T12:07:35.852Z,99653.03
2023-04-04T12:10:23.344Z,99641.50
2023-04-04T12:13:10.859Z,99642.84
2023-04-04T12:15:58.473Z,99634.44
2023-04-04T12:18:46.529Z,99639.13
2023-04-04T12:21:33.856Z,99624.66
2023-04-04T12:24:21.366Z,99616.84
2023-04-04T12:27:08.739Z,99638.34
2023-04-04T12:29:57.301Z,99636.00
2023-04-04T12:32:47.489Z,99634.31
2023-04-04T12:35:34.696Z,99608.00
2023-04-04T12:38:21.999Z,99626.13
2023-04-04T12:41:17.631Z,99618.34
2023-04-04T12:44:07.602Z,99616.34
2023-04-04T12:46:57.971Z,99605.94
2023-04-04T12:49:50.549Z,99609.50
2023-04-04T12:52:39.903Z,99594.16
2023-04-04T12:55:31.684Z,99597.31
2023-04-04T12:58:22.694Z,99595.00
2023-04-04T13:01:10.607Z,99587.97
2023-04-04T13:04:01.517Z,99590.66
2023-04-04T13:06:49.046Z,99590.16
2023-04-04T13:09:37.105Z,99582.97
2023-04-04T13:12:25.163Z,99578.28
2023-04-04T13:15:14.126Z,99566.91
2023-04-04T13:18:24.828Z,99573.13
2023-04-04T13:21:12.665Z,99558.50
2023-04-04T13:24:02.368Z,99571.91
2023-04-04T13:26:49.439Z,99563.91
2023-04-04T13:29:36.528Z,99562.53
2023-04-04T13:32:23.872Z,99564.06
2023-04-04T13:35:11.101Z,99557.38
2023-04-04T13:37:58.164Z,99549.38
2023-04-04T13:40:45.854Z,99547.38
2023-04-04T13:43:32.975Z,99550.47
2023-04-04T13:46:21.833Z,99551.19
2023-04-04T13:49:11.037Z,99560.38
2023-04-04T13:51:58.121Z,99548.66
2023-04-04T13:54:45.180Z,99542.41
2023-04-04T13:57:32.244Z,99550.88
2023-04-04T14:00:19.659Z,99548.84
2023-04-04T14:03:07.039Z,99531.28
2023-04-04T14:05:54.147Z,99537.03
2023-04-04T14:08:41.282Z,99538.66
2023-04-04T14:11:31.422Z,99531.75
2023-04-04T14:14:18.514Z,99531.97
2023-04-04T14:17:05.753Z,99536.53
2023-04-04T14:19:52.914Z,99507.44
2023-04-04T14:22:39.949Z,99535.81
2023-04-04T14:25:27.036Z,99526.72
2023-04-04T14:28:14.071Z,99518.84
2023-04-04T14:31:01.297Z,99521.06
2023-04-04T14:33:48.418Z,99532.63
2023-04-04T14:36:35.652Z,99534.69
2023-04-04T14:39:22.862Z,99523.81
2023-04-04T14:42:10.197Z,99540.81
2023-04-04T14:44:57.339Z,99525.06
2023-04-04T14:47:44.404Z,99533.13
2023-04-04T14:50:31.491Z,99552.50
2023-04-04T14:53:18.590Z,99537.72
2023-04-04T14:56:05.842Z,99549.78
2023-04-04T14:58:53.153Z,99549.78
2023-04-04T15:01:40.258Z,99557.69
2023-04-04T15:04:27.510Z,99536.63
2023-04-04T15:07:14.722Z,99560.47
2023-04-04T15:10:01.979Z,99545.22
2023-04-04T15:12:49.044Z,99553.75
2023-04-04T15:15:36.115Z,99536.53
2023-04-04T15:18:23.283Z,99549.28
2023-04-04T15:21:11.572Z,99541.41
2023-04-04T15:23:58.680Z,99527.13
2023-04-04T15:26:46.426Z,99541.09
2023-04-04T15:29:33.799Z,99539.59
2023-04-04T15:32:20.925Z,99552.84
2023-04-04T15:35:16.964Z,99547.78
2023-04-04T15:38:04.036Z,99548.00
2023-04-04T15:40:51.429Z,99552.28
2023-04-04T15:43:38.700Z,99547.09
2023-04-04T15:46:25.966Z,99541.97
2023-04-04T15:49:13.024Z,99541.06
2023-04-04T15:52:00.100Z,99551.81
2023-04-04T15:54:47.196Z,99535.16
2023-04-04T15:57:34.337Z,99548.97
2023-04-04T16:00:21.706Z,99547.31
2023-04-04T16:03:08.845Z,99564.00
2023-04-04T16:05:56.667Z,99560.56
2023-04-04T16:08:44.956Z,99549.59
2023-04-04T16:11:32.815Z,99544.47
2023-04-04T16:14:19.852Z,99553.00
2023-04-04T16:17:06.888Z,99549.78
2023-04-04T16:19:54.271Z,99562.91
2023-04-04T16:22:41.361Z,99562.44
2023-04-04T16:25:28.612Z,99553.31
2023-04-04T16:28:15.735Z,99559.88
2023-04-04T16:31:03.051Z,99564.38
2023-04-04T16:33:50.126Z,99563.41
2023-04-04T16:36:37.261Z,99561.22
2023-04-04T16:39:24.465Z,99565.91
2023-04-04T16:42:11.522Z,99579.19
2023-04-04T16:44:58.656Z,99571.38
2023-04-04T16:47:45.988Z,99573.44
2023-04-04T16:50:33.073Z,99574.53
2023-04-04T16:53:20.094Z,99581.75
2023-04-04T16:56:07.252Z,99583.50
2023-04-04T16:58:54.637Z,99576.97
2023-04-04T17:01:41.824Z,99593.09
2023-04-04T17:04:29.113Z,99584.25
2023-04-04T17:07:16.517Z,99586.06
2023-04-04T17:10:03.880Z,99589.78
2023-04-04T17:12:51.579Z,99585.34
2023-04-04T17:15:38.659Z,99597.28
2023-04-04T17:18:25.951Z,99596.13
2023-04-04T17:21:12.963Z,99597.63
2023-04-04T17:24:00.141Z,99603.72
2023-04-04T17:26:48.191Z,99607.44
2023-04-04T17:29:36.254Z,99618.72
2023-04-04T17:32:23.272Z,99603.56
2023-04-04T17:35:10.768Z,99603.78
2023-04-04T17:40:41.369Z,99609.53
2023-04-04T17:43:30.178Z,99610.78
2023-04-04T17:46:17.967Z,99617.09
2023-04-04T17:49:05.211Z,99628.09
2023-04-04T17:51:54.240Z,99629.16
2023-04-04T17:54:41.623Z,99617.13
2023-04-04T17:57:28.830Z,99627.53
2023-04-04T18:00:16.524Z,99633.41
2023-04-04T18:03:04.839Z,99646.41
2023-04-04T18:05:54.085Z,99638.47
2023-04-04T18:08:43.134Z,99643.69
2023-04-04T18:11:30.344Z,99634.88
2023-04-04T18:14:18.200Z,99655.25
2023-04-04T18:17:05.518Z,99642.28
2023-04-04T18:19:55.706Z,99647.66
2023-04-04T18:22:43.104Z,99656.56
2023-04-04T18:25:33.484Z,99657.00
2023-04-04T18:28:20.532Z,99660.59
2023-04-04T18:31:08.406Z,99668.22
2023-04-04T18:33:56.254Z,99660.31
2023-04-04T18:36:44.217Z,99675.38
2023-04-04T18:39:32.699Z,99676.25
2023-04-04T18:42:20.558Z,99677.91
2023-04-04T18:45:08.470Z,99689.38
2023-04-04T18:47:56.340Z,99694.75
2023-04-04T18:50:44.181Z,99687.22
2023-04-04T18:53:31.459Z,99691.94
2023-04-04T18:56:19.188Z,99702.34
2023-04-04T18:59:06.748Z,99703.13
2023-04-04T19:01:54.608Z,99708.34
2023-04-04T19:04:44.334Z,99712.59
2023-04-04T19:07:34.731Z,99715.25
2023-04-04T19:10:23.127Z,99714.00
2023-04-04T19:13:10.860Z,99706.03
2023-04-04T19:15:58.602Z,99704.44
2023-04-04T19:18:46.708Z,99698.63
2023-04-04T19:21:34.533Z,99719.97
2023-04-04T19:24:23.209Z,99713.16
2023-04-04T19:27:10.923Z,99716.59
2023-04-04T19:29:58.691Z,99720.63
2023-04-04T19:32:47.970Z,99714.91
2023-04-04T19:36:09.157Z,99722.06
2023-04-04T19:38:57.706Z,99715.97
2023-04-04T19:41:45.890Z,99704.59
2023-04-04T19:44:33.628Z,99717.13
2023-04-04T19:47:22.248Z,99726.06
2023-04-04T19:50:29.705Z,99720.63
2023-04-04T19:56:26.654Z,99720.69
2023-04-04T19:59:59.792Z,99726.09
2023-04-04T20:02:53.606Z,99717.97
2023-04-04T20:05:47.978Z,99732.09
2023-04-04T20:08:37.996Z,99727.16
2023-04-04T20:11:33.391Z,99728.75
2023-04-04T20:14:24.077Z,99723.88
2023-04-04T20:17:11.463Z,99718.34
2023-04-04T20:19:58.521Z,99717.69
2023-04-04T20:22:45.912Z,99721.97
2023-04-04T20:25:42.948Z,99736.47
2023-04-04T20:28:33.418Z,99741.22
2023-04-04T20:31:21.287Z,99727.75
2023-04-04T20:34:27.828Z,99732.50
2023-04-04T20:37:22.320Z,99746.09
2023-04-04T20:40:13.336Z,99744.56
2023-04-04T20:43:00.517Z,99743.88
2023-04-04T20:45:50.484Z,99744.69
2023-04-04T20:48:39.719Z,99752.50
2023-04-04T20:51:33.358Z,99748.50
2023-04-04T20:54:20.441Z,99756.91
2023-04-04T20:57:07.745Z,99752.81
2023-04-04T20:59:54.837Z,99771.19
2023-04-04T21:02:42.534Z,99751.13
2023-04-04T21:05:35.327Z,99771.16
2023-04-04T21:08:22.394Z,99770.34
2023-04-04T21:11:11.620Z,99767.63
2023-04-04T21:13:58.691Z,99737.53
2023-04-04T21:16:45.933Z,99766.41
2023-04-04T21:19:32.945Z,99775.38
2023-04-04T21:22:20.097Z,99769.75
2023-04-04T21:25:18.899Z,99777.91
2023-04-04T21:28:06.783Z,99762.59
2023-04-04T21:30:53.891Z,99778.75
2023-04-04T21:33:48.486Z,99776.34
2023-04-04T21:36:35.760Z,99773.28
2023-04-04T21:39:26.472Z,99783.06
2023-04-04T21:42:13.818Z,99772.03
2023-04-04T21:45:00.907Z,99768.81
2023-04-04T21:47:48.109Z,99774.41
2023-04-04T21:50:35.244Z,99761.44
2023-04-04T21:53:22.490Z,99777.78
2023-04-04T21:56:09.713Z,99771.50
2023-04-04T21:58:57.848Z,99781.06
2023-04-04T22:01:45.503Z,99764.72
2023-04-04T22:04:32.556Z,99775.22
2023-04-04T22:07:19.580Z,99776.75
2023-04-04T22:10:09.470Z,99767.34
2023-04-04T22:13:00.190Z,99765.28
2023-04-04T22:15:47.483Z,99769.63
2023-04-04T22:18:34.854Z,99760.38
2023-04-04T22:21:28.173Z,99770.06
2023-04-04T22:24:15.980Z,99782.50
2023-04-04T22:27:03.986Z,99756.38
2023-04-04T22:29:51.230Z,99761.91
2023-04-04T22:32:39.369Z,99779.56
2023-04-04T22:35:28.127Z,99771.31
2023-04-04T22:38:15.093Z,99774.81
2023-04-04T22:41:02.121Z,99778.13
2023-04-04T22:43:49.088Z,99770.06
2023-04-04T22:46:36.975Z,99778.75
2023-04-04T22:49:24.001Z,99783.38
2023-04-04T22:52:13.017Z,99763.94
2023-04-04T22:55:00.261Z,99778.97
2023-04-04T22:57:47.325Z,99773.38
2023-04-04T23:03:33.505Z,99773.44
2023-04-04T23:06:20.836Z,99777.53
2023-04-04T23:09:08.455Z,99781.06
2023-04-04T23:11:56.197Z,99787.72
2023-04-04T23:14:45.100Z,99790.91
2023-04-04T23:17:33.091Z,99783.09
2023-04-04T23:20:20.231Z,99784.31
2023-04-04T23:23:07.238Z,99792.72
2023-04-04T23:25:54.802Z,99768.31
2023-04-04T23:28:41.821Z,99783.88
2023-04-04T23:31:29.105Z,99783.28
2023-04-04T23:34:16.319Z,99776.41
2023-04-04T23:37:03.931Z,99780.94
2023-04-04T23:39:51.183Z,99768.16
2023-04-04T23:42:38.263Z,99769.25
2023-04-04T23:45:26.176Z,99774.31
2023-04-04T23:48:13.237Z,99763.28
2023-04-04T23:51:01.845Z,99769.34
2023-04-04T23:53:48.942Z,99765.13
2023-04-04T23:56:37.155Z,99759.03
2023-04-04T23:59:24.630Z,99762.31
